CW9197 Weather Reports


Display with metric or nautical units.
time (UTC)temp
F
wind
direction
speed
MPH
gust
MPH
rain 1hr
in
rain 24hr
in
rain mn
in
humidity
%
barometer
mb
20190916161004 45 309 2.0 6.0 0.00 0.00 0.00 88 992.1
20190916160003 45 318 1.0 5.0 0.00 0.00 0.00 88 992.0
20190916155007 46 328 2.0 6.0 0.00 0.00 0.00 87 991.9
20190916154005 46 320 1.0 5.0 0.00 0.00 0.00 87 991.8
20190916153004 46 318 1.0 4.0 0.00 0.00 0.00 85 991.8
20190916152004 47 322 2.0 6.0 0.00 0.00 0.00 85 991.8
20190916151005 47 331 2.0 5.0 0.00 0.00 0.00 85 991.8
20190916150004 47 326 3.0 12.0 0.00 0.00 0.00 85 991.8
20190916145004 47 330 4.0 10.0 0.00 0.00 0.00 87 991.7
20190916144005 47 323 2.0 6.0 0.00 0.00 0.00 88 991.6
20190916143005 47 325 2.0 8.0 0.00 0.00 0.00 89 991.6
20190916142004 47 334 2.0 8.0 0.00 0.00 0.00 89 991.5
20190916141005 47 325 2.0 5.0 0.00 0.00 0.00 90 991.5
20190916140004 47 335 1.0 5.0 0.00 0.00 0.00 88 991.4
20190916135005 47 340 2.0 6.0 0.00 0.00 0.00 89 991.3
20190916134004 47 346 2.0 8.0 0.00 0.00 0.00 89 991.2
20190916133005 47 337 3.0 9.0 0.00 0.00 0.00 89 991.1
20190916132003 47 342 5.0 17.0 0.00 0.00 0.00 89 991.0
20190916131005 47 4 3.0 9.0 0.00 0.00 0.00 89 990.9
20190916130005 47 352 4.0 11.0 0.00 0.00 0.00 89 990.8
20190916125005 48 356 4.0 10.0 0.00 0.00 0.00 90 990.7
20190916124004 48 345 5.0 12.0 0.00 0.00 0.00 91 990.6
20190916123005 48 356 4.0 12.0 0.00 0.00 0.00 92 990.5
20190916122006 47 8 3.0 9.0 0.00 0.00 0.00 91 990.4
20190916121005 48 345 4.0 9.0 0.00 0.00 0.00 90 990.2
20190916120005 48 357 3.0 9.0 0.00 0.00 0.00 91 990.0
20190916115005 48 340 4.0 12.0 0.00 0.00 0.00 91 990.0
20190916114004 49 6 4.0 10.0 0.00 0.00 0.00 91 989.8
20190916113005 48 348 2.0 6.0 0.00 0.00 0.00 95 989.7
20190916112005 47 2 0.0 2.0 0.00 0.00 0.00 95 989.7
20190916111005 47 20 1.0 5.0 0.00 0.00 0.00 94 989.5
20190916110003 47 2 3.0 9.0 0.00 0.00 0.00 96 989.3
20190916105006 47 355 3.0 10.0 0.00 0.00 0.00 97 989.1
20190916104005 47 353 3.0 8.0 0.00 0.00 0.00 97 989.0
20190916103003 47 3 2.0 7.0 0.00 0.00 0.00 96 988.8
20190916102006 47 12 2.0 9.0 0.00 0.00 0.00 96 988.7
20190916101005 47 357 3.0 7.0 0.00 0.00 0.00 97 988.5
20190916100003 46 7 1.0 4.0 0.00 0.00 0.00 98 988.3
20190916095005 46 358 3.0 10.0 0.00 0.00 0.00 98 988.2
20190916094005 46 357 3.0 11.0 0.00 0.00 0.00 98 988.1
20190916093005 46 8 1.0 6.0 0.00 0.00 0.00 98 987.8
20190916092004 47 356 3.0 9.0 0.00 0.00 0.00 99 987.6
20190916091005 46 6 2.0 7.0 0.00 0.00 0.00 99 987.4
20190916090005 46 7 3.0 11.0 0.00 0.00 0.00 99 987.2
20190916085004 46 21 3.0 10.0 0.00 0.00 0.00 99 987.0
20190916084005 46 4 2.0 10.0 0.00 0.00 0.00 99 986.9
20190916083005 46 14 2.0 9.0 0.00 0.00 0.00 100 986.7
20190916082004 46 10 3.0 8.0 0.00 0.00 0.00 100 986.5
20190916081005 46 0 2.0 8.0 0.00 0.00 0.00 100 986.4
20190916080005 46 11 1.0 8.0 0.00 0.00 0.00 100 986.2
20190916075004 45 11 2.0 8.0 0.00 0.00 0.00 100 986.1
20190916074003 45 349 3.0 10.0 0.00 0.00 0.00 100 986.0
20190916073005 45 347 4.0 11.0 0.00 0.00 0.00 100 985.8
20190916072006 45 333 1.0 6.0 0.00 0.00 0.00 100 985.6
20190916071004 45 339 2.0 9.0 0.00 0.00 0.00 100 985.5
20190916070005 45 346 2.0 9.0 0.00 0.00 0.00 100 985.4
20190916065007 45 354 1.0 7.0 0.00 0.00 0.00 100 985.3
20190916064005 45 340 3.0 7.0 0.00 0.00 0.00 100 985.1
20190916063004 44 345 2.0 8.0 0.00 0.00 0.00 100 985.0
20190916062005 44 342 4.0 13.0 0.00 0.00 0.00 100 984.9
20190916061004 44 342 3.0 7.0 0.00 0.00 0.00 100 984.7
20190916060003 44 348 3.0 10.0 0.00 0.00 0.00 100 984.6
20190916055005 44 15 1.0 8.0 0.00 0.00 0.00 100 984.5
20190916054004 44 350 1.0 8.0 0.00 0.00 0.00 100 984.4
20190916053004 44 336 3.0 8.0 0.00 0.00 0.00 100 984.3
20190916052003 44 327 3.0 11.0 0.00 0.00 0.00 100 984.2
20190916051005 44 299 2.0 8.0 0.00 0.00 0.00 100 984.1
20190916050004 44 332 2.0 6.0 0.00 0.00 0.00 100 984.0
20190916045003 44 316 2.0 6.0 0.00 0.00 0.00 100 984.0
20190916044006 44 324 1.0 4.0 0.00 0.00 0.00 100 983.9
20190916043005 44 311 2.0 8.0 0.00 0.00 0.00 100 983.8
20190916042004 44 332 3.0 9.0 0.00 0.00 0.00 100 983.7
20190916041005 44 316 2.0 7.0 0.00 0.00 0.00 100 983.6
20190916040005 44 303 2.0 6.0 0.00 0.00 0.00 100 983.5
20190916035004 44 318 2.0 11.0 0.00 0.00 0.00 100 983.5
20190916034004 44 305 2.0 6.0 0.00 0.00 0.00 100 983.4
20190916033005 44 311 3.0 8.0 0.00 0.00 0.00 100 983.4
20190916032004 44 317 3.0 9.0 0.00 0.00 0.00 100 983.3
20190916031003 45 286 4.0 12.0 0.00 0.00 0.00 100 983.2
20190916030005 44 311 2.0 6.0 0.00 0.00 0.00 100 983.2
20190916025005 45 302 3.0 10.0 0.00 0.00 0.00 100 983.1
20190916024003 45 295 2.0 10.0 0.00 0.00 0.00 100 983.0
20190916023005 45 295 3.0 8.0 0.00 0.00 0.00 100 983.0
20190916022004 45 313 4.0 13.0 0.00 0.00 0.00 100 982.9
20190916021004 45 293 3.0 10.0 0.00 0.00 0.00 100 982.8
20190916020005 45 292 3.0 8.0 0.00 0.00 0.00 100 982.7
20190916015005 45 284 4.0 13.0 0.00 0.00 0.00 100 982.7
20190916014004 45 297 4.0 11.0 0.00 0.00 0.00 100 982.6
20190916013004 45 292 4.0 12.0 0.00 0.00 0.00 100 982.6
20190916012003 45 267 4.0 11.0 0.00 0.00 0.00 100 982.5
20190916011005 45 282 2.0 7.0 0.00 0.00 0.00 100 982.5
20190916010005 46 258 4.0 12.0 0.00 0.00 0.00 100 982.4
20190916005004 46 251 3.0 9.0 0.00 0.00 0.00 100 982.3
20190916004004 46 255 4.0 14.0 0.00 0.00 0.00 100 982.2
20190916003005 46 220 2.0 6.0 0.00 0.00 0.00 100 982.1
20190916002005 46 218 3.0 7.0 0.00 0.00 0.00 100 982.1
20190916001004 46 216 3.0 8.0 0.00 0.00 0.00 100 982.2
20190916000005 46 216 2.0 6.0 0.00 0.00 0.00 100 982.3
20190915235004 46 223 3.0 10.0 0.00 0.00 0.00 100 982.4
20190915234004 46 221 2.0 9.0 0.00 0.00 0.00 100 982.4
20190915233005 46 232 2.0 8.0 0.00 0.00 0.00 100 982.5
20190915232005 46 227 2.0 8.0 0.00 0.00 0.00 100 982.5
20190915231004 46 232 2.0 8.0 0.00 0.00 0.00 100 982.6
20190915230004 46 235 2.0 7.0 0.00 0.00 0.00 100 982.5
20190915225005 46 226 2.0 5.0 0.00 0.00 0.00 100 982.5
20190915224005 46 226 3.0 9.0 0.00 0.00 0.00 100 982.6
20190915223004 46 222 2.0 6.0 0.00 0.00 0.00 100 982.6
20190915222004 46 235 2.0 8.0 0.00 0.00 0.00 100 982.6
20190915221005 46 226 2.0 5.0 0.00 0.00 0.00 100 982.6
20190915220004 46 220 2.0 8.0 0.00 0.00 0.00 100 982.6
20190915215004 46 218 2.0 5.0 0.00 0.00 0.00 100 982.6
20190915214003 46 217 2.0 6.0 0.00 0.00 0.00 100 982.7
20190915213003 46 219 2.0 6.0 0.00 0.00 0.00 100 982.7
20190915212005 46 217 2.0 5.0 0.00 0.00 0.00 100 982.7
20190915211004 46 215 3.0 5.0 0.00 0.00 0.00 100 982.8
20190915210003 46 217 3.0 7.0 0.00 0.00 0.00 100 982.8
20190915205005 46 220 3.0 8.0 0.00 0.00 0.00 100 982.8
20190915204004 47 220 2.0 5.0 0.00 0.00 0.00 100 982.8
20190915203005 47 223 2.0 8.0 0.00 0.00 0.00 100 982.8
20190915202005 47 233 3.0 12.0 0.00 0.00 0.00 100 982.7
20190915201004 47 221 3.0 6.0 0.00 0.00 0.00 100 982.8
20190915200004 47 223 3.0 8.0 0.00 0.00 0.00 100 982.8
20190915195005 48 219 3.0 8.0 0.00 0.00 0.00 100 982.8
20190915194005 48 222 2.0 8.0 0.00 0.00 0.00 100 982.8
20190915193004 48 225 3.0 8.0 0.00 0.00 0.00 100 982.7
20190915192004 48 222 3.0 6.0 0.00 0.00 0.00 100 982.7
20190915191005 48 225 3.0 7.0 0.00 0.00 0.00 100 982.7
20190915190005 48 222 2.0 6.0 0.00 0.00 0.00 100 982.7
20190915185004 48 216 2.0 5.0 0.00 0.00 0.00 100 982.6
20190915184006 48 215 2.0 5.0 0.00 0.00 0.00 100 982.7
20190915183005 48 219 2.0 6.0 0.00 0.00 0.00 100 982.7
20190915182004 48 220 2.0 6.0 0.00 0.00 0.00 100 982.7
20190915181003 48 216 2.0 4.0 0.00 0.00 0.00 100 982.8
20190915180003 48 219 2.0 3.0 0.00 0.00 0.00 100 982.8
20190915175005 48 215 2.0 4.0 0.00 0.00 0.00 100 982.8
20190915174004 48 214 1.0 3.0 0.00 0.00 0.00 100 982.8
20190915173003 48 219 2.0 3.0 0.00 0.00 0.00 100 982.8
20190915172005 48 216 1.0 3.0 0.00 0.00 0.00 100 982.8
20190915171005 48 212 1.0 2.0 0.00 0.00 0.00 100 982.9
20190915170004 48 218 0.0 2.0 0.00 0.00 0.00 100 983.0
20190915165005 48 213 1.0 3.0 0.00 0.00 0.00 100 983.1
20190915164005 48 231 0.0 3.0 0.00 0.00 0.00 100 983.2
20190915163005 48 215 1.0 4.0 0.00 0.00 0.00 100 983.3
20190915162004 48 219 0.0 3.0 0.00 0.00 0.00 100 983.4